Aérodrome :
LOGIN :

S'inscrire | Disclaimer

   EN    FR    IT 

 










Légende :    VFR   VFR Marginal   IFR   IFR Intensif   IFR Très Intensif
Visi : 
Plafond : 
>= 8 km
>= 3000ft
5 à 8 km
1000 à 3000 ft
1500m à 5 km
500 à 1000 ft
800 à 1500m
200 à 500 ft
< 800m
< 200 ft
Symboles :   Orages  Brouillard  Fortes neiges  Fortes précipitations  Vent > 20 kt
SIGMETs :   Divers  Orages  Givrage  Turbulence  Onde Orograph.  Cendres Volcan.






- Altitude de l'aérodrome : 659 ft
- Code IATA : LYN


LFLY - Lyon Bron

DERNIER METAR :
  • 150930Z AUTO 22007KT 170V260 CAVOK 11/08 Q1011 NOSIG

METARs EXPIRÉS :
  • 150900Z AUTO 22004KT 170V260 9999 ////// 10/09 Q1011
  • 150830Z AUTO 17007KT CAVOK 10/08 Q1010 NOSIG
  • 150800Z AUTO 16008KT CAVOK 10/08 Q1010 NOSIG
  • 150730Z AUTO 18006KT CAVOK 10/08 Q1010 NOSIG
  • 150700Z AUTO 19008KT CAVOK 10/08 Q1010 NOSIG

TAF TAF LFLY
Valide du 15 à 06h jusqu'au 16 à 06h UTC


150500Z 1506/1606 18011KT CAVOK
TEMPO 1522/1524 18020G30KT
ATIS : +33 4 72 15 87 96



MET'MAP, la Météo Aéronautique d'un coup d'oeil ! - Copyright ORBIFLY Décembre 2007 - Disclaimer

ORBIFLY MET'MAP TEAM :

Programmation & Développement : Alexandra Zaïnal
Sur une idée originale de : Baudouin d'Aumeries
Assistance à la programmation : Marc-Olivier Méhu
Soutien technique & logistique : Manuel Goepfert

Contact : metmap@orbifly.com




SOURCES & CREDITS :

   NOAA